KTYR/TYR METAR and TAF weather

Enter ICAO airport designator
Station Type Date Time Source
KTYR METAR 2019/08/18 08:53 UTC NOAA

KTYR 180853Z AUTO 17009KT 10SM CLR 27/24 A2987 RMK AO2 SLP106 T02670244 58005


Station Type Date Time Source
KTYR Decoded METAR 2019/08/18 08:53 UTC NOAA

Station name not available
Aug 18, 2019 - 04:53 AM EDT / 2019.08.18 0853 UTC
Wind: from the S (170 degrees) at 10 MPH (9 KT):0
Visibility: 10 mile(s):0
Sky conditions: clear
Temperature: 80.1 F (26.7 C)
Dew Point: 75.9 F (24.4 C)
Relative Humidity: 87%
Pressure (altimeter): 29.87 in. Hg (1011 hPa)
Pressure tendency: 0.01 inches (0.5 hPa) lower than three hours ago
ob: KTYR 180853Z AUTO 17009KT 10SM CLR 27/24 A2987 RMK AO2 SLP106 T02670244 58005
cycle: 9

Station Type Date Time Source
KTYR TAF 2019/08/18 06:42 UTC NOAA

TAF KTYR 180540Z 1806/1906 15008KT P6SM SKC
TEMPO 1813/1815 BKN030
FM181600 20012G18KT P6SM SCT050
FM190000 17008KT P6SM SKC

Example: see airport list